Airfield :
LOGIN :

Register | Disclaimer

   EN    FR    IT 

 










Legend :    VFR   Marginal VFR   IFR   Intensive IFR   Very Intensive IFR
Visi :
Ceiling :
>= 8 km
>= 3000ft
5 to 8 km
1000 to 3000 ft
1500m to 5 km
500 to 1000 ft
800 to 1500m
200 to 500 ft
< 800m
< 200 ft
Symbols :   Thunderstorms  Fog  Heavy snow  Heavy precipitations  Wind > 20 kt
SIGMETs :     Misc.  Thunderstorms  Icing  Turbulence  Mountain Waves  Volcanic Ashes







- Airport Elevation : 3 ft
- IATA code : DHR


EHKD - Den Helder De Kooy

CURRENT METAR :
  • 201255Z AUTO 36008KT 300V050 9999 BKN007 OVC008 16/13 Q1009 GRN 34008KT 7000 BKN005 BKN008 TEMPO BKN003

EXPIRED METARs :
  • 201225Z AUTO 36007KT 300V040 9999 SCT007 OVC008 16/13 Q1009 GRN 34008KT 7000 BKN005 BKN008 TEMPO BKN003
  • 201155Z AUTO 35008KT 300V040 8000 BR BKN005 OVC006 14/12 Q1008 YLO 34008KT 7000 BKN005 BKN008 TEMPO BKN003
  • 201136Z AUTO 34007KT 290V030 8000 BR SCT004 OVC005 14/12 Q1008 YLO 34008KT 7000 BKN005 BKN008 TEMPO BKN003
  • 201125Z AUTO 33008KT 300V010 8000 BR BKN004 OVC005 14/12 Q1008 YLO 34008KT 7000 BKN005 BKN008 TEMPO BKN003
  • 201102Z AUTO 33009KT 290V020 7000 BR BKN003 OVC004 14/12 Q1008 YLO 34008KT 7000 BKN005 BKN008 TEMPO BKN003
  • 201046Z AUTO 33009KT 290V030 8000 BR OVC004 14/12 Q1008 YLO 34008KT 7000 BKN005 BKN008 BECMG SCT010 BKN015
  • 201032Z AUTO 33008KT 270V010 8000 BR BKN004 OVC005 14/12 Q1008 YLO 34008KT 7000 BKN005 BKN008 BECMG SCT010 BKN015
  • 201025Z AUTO 32009KT 290V020 7000 BR BKN003 OVC004 13/12 Q1008 YLO 34008KT 9999 BKN005 BKN008 BECMG SCT010 BKN015

TAF TAF EHKD
Valid from the 20 at 13:00 until the 21 at 01:00 UTC


201232Z 2013/2101 33009KT 9999 BKN008 OVC012
BECMG 2016/2018 4000 BR FEW003 BKN005 OVC008
BECMG 2018/2021 2000 SCT002 BKN003
PROB40 2022/2101 1000 BR OVC001
No reported NOTAMs for that airfield.



MET'MAP, your aeronautical weather chart ! - Copyright ORBIFLY December 2007 - Disclaimer

ORBIFLY MET'MAP TEAM :

Programming & Development : Alexandra Zaïnal
Concept & Development : Baudouin d'Aumeries
Co-Development & Prog : Marc-Olivier Méhu
Technical & hardware support : Manuel Goepfert

Contact : metmap@orbifly.com




SOURCES & CREDITS :

   NOAA